首页
METAR-TAF:

METAR-TAF

机场 :

波德戈里察國際機場

波德戈里察, 蒙特內哥羅

纬度: 42-26N, 经度: 019-17E, 海拔: 53米

当前天气观测

该预报发布于36分钟前的20:30 UTC
风速10节,风向北转东北
温度 5°C
湿度 41%
气压 1015 hPa
能见度10公里或以上
散云层高于4000英尺
多云层高于8000英尺

METAR: LYPG 012030Z 02010KT 9999 SCT040 BKN080 05/M07 Q1015 NOSIG

时间: 23:06 (21:06 UTC)

预报

该预报发布于4小时和6分钟前的17:00 UTC
预报有效从01日的 18点(UTC)到 02日的 18点(UTC)
风速12节,风向北转东北
能见度10公里或以上
散云层高于4000英尺
散云层高于8000英尺
短暂存在
从 01日的 18点(UTC)到 01日的 22点(UTC)
风速15节,风向,有时为25节阵风
成为
从 02日的 01点(UTC)到 02日的 03点(UTC)
风速5节,风向

TAF: LYPG 011700Z 0118/0218 03012KT 9999 SCT040 SCT080 TX15/0213Z TNM01/0205Z TEMPO 0118/0122 01015G25KT BECMG 0201/0203 36005KT

超过4000个机场的气象观测和天气预报(METAR&TAF报告)。

可查询的气象台以黄色和红色小点在地图上表示。

将鼠标移到小点上方,可查看气象台名称。

然后点击查看天气观测和预报。

如需切换地图:点击带黑十字的绿色按钮放大地图;点击带横线的绿色按钮缩小地图;或者点击绿色箭头查看邻近地区的地图。


METAR-TAF: